createdAt,value
2022-09-14T00:01:37.148Z,99.90
2022-09-14T00:04:11.304Z,99.90
2022-09-14T00:06:38.517Z,99.90
2022-09-14T00:09:06.733Z,99.90
2022-09-14T00:14:52.923Z,99.90
2022-09-14T00:17:19.906Z,99.90
2022-09-14T00:19:47.264Z,99.90
2022-09-14T00:22:14.115Z,99.90
2022-09-14T00:24:40.924Z,99.90
2022-09-14T00:27:07.826Z,99.90
2022-09-14T00:29:34.705Z,99.90
2022-09-14T00:36:51.777Z,99.90
2022-09-14T00:39:20.779Z,99.90
2022-09-14T00:41:49.312Z,99.90
2022-09-14T00:44:16.010Z,99.90
2022-09-14T00:46:53.001Z,99.90
2022-09-14T00:49:35.357Z,99.90
2022-09-14T00:52:19.440Z,99.90
2022-09-14T00:57:43.186Z,99.90
2022-09-14T01:00:13.312Z,99.90
2022-09-14T01:02:40.435Z,99.90
2022-09-14T01:05:10.167Z,99.90
2022-09-14T01:08:08.427Z,99.90
2022-09-14T01:10:41.060Z,99.90
2022-09-14T01:16:20.625Z,99.90
2022-09-14T01:18:52.605Z,99.90
2022-09-14T01:21:25.778Z,99.90
2022-09-14T01:24:41.861Z,99.90
2022-09-14T01:27:27.405Z,99.90
2022-09-14T01:30:06.916Z,99.90
2022-09-14T01:38:10.857Z,99.90
2022-09-14T01:40:45.720Z,99.90
2022-09-14T01:43:34.100Z,99.90
2022-09-14T01:46:17.371Z,99.90
2022-09-14T01:48:48.594Z,99.90
2022-09-14T01:51:25.495Z,99.90
2022-09-14T01:59:48.667Z,99.90
2022-09-14T02:02:44.591Z,99.90
2022-09-14T02:05:33.895Z,99.90
2022-09-14T02:08:01.134Z,99.90
2022-09-14T02:10:28.806Z,99.90
2022-09-14T02:12:56.229Z,99.90
2022-09-14T02:18:04.608Z,99.90
2022-09-14T02:20:49.802Z,99.90
2022-09-14T02:23:17.708Z,99.90
2022-09-14T02:25:46.477Z,99.90
2022-09-14T02:28:13.993Z,99.90
2022-09-14T02:30:44.442Z,99.90
2022-09-14T02:33:36.582Z,99.90
2022-09-14T02:41:36.735Z,99.90
2022-09-14T02:44:16.659Z,99.90
2022-09-14T02:46:49.437Z,99.90
2022-09-14T02:49:34.307Z,99.90
2022-09-14T02:52:12.551Z,99.90
2022-09-14T02:55:04.773Z,99.90
2022-09-14T03:02:51.195Z,99.90
2022-09-14T03:05:18.675Z,99.90
2022-09-14T03:07:45.438Z,99.90
2022-09-14T03:10:12.660Z,99.90
2022-09-14T03:12:39.397Z,99.90
2022-09-14T03:15:06.843Z,99.90
2022-09-14T03:17:33.442Z,99.90
2022-09-14T03:23:51.047Z,99.90
2022-09-14T03:26:20.809Z,99.90
2022-09-14T03:28:58.567Z,99.90
2022-09-14T03:31:25.990Z,99.90
2022-09-14T03:33:57.622Z,99.90
2022-09-14T03:36:26.670Z,99.90
2022-09-14T03:38:55.307Z,99.90
2022-09-14T03:45:32.425Z,99.90
2022-09-14T03:47:59.065Z,99.90
2022-09-14T03:50:25.948Z,99.90
2022-09-14T03:52:52.893Z,99.90
2022-09-14T03:55:19.921Z,99.90
2022-09-14T03:57:46.821Z,99.90
2022-09-14T04:00:14.644Z,99.90
2022-09-14T04:05:59.037Z,99.90
2022-09-14T04:08:26.074Z,99.90
2022-09-14T04:10:53.453Z,99.90
2022-09-14T04:13:20.067Z,99.90
2022-09-14T04:15:56.714Z,99.90
2022-09-14T04:18:24.802Z,99.90
2022-09-14T04:21:03.345Z,99.90
2022-09-14T04:28:19.118Z,99.90
2022-09-14T04:30:44.194Z,99.90
2022-09-14T04:33:11.035Z,99.90
2022-09-14T04:35:37.942Z,99.90
2022-09-14T04:38:04.893Z,99.90
2022-09-14T04:40:31.535Z,99.90
2022-09-14T04:42:58.356Z,99.90
2022-09-14T04:52:52.668Z,99.90
2022-09-14T04:55:19.543Z,99.90
2022-09-14T04:57:46.448Z,99.90
2022-09-14T05:00:13.599Z,99.90
2022-09-14T05:02:41.331Z,99.90
2022-09-14T05:05:08.833Z,99.90
2022-09-14T05:12:39.708Z,99.90
2022-09-14T05:15:07.365Z,99.90
2022-09-14T05:17:34.853Z,99.90
2022-09-14T05:20:02.154Z,99.90
2022-09-14T05:22:28.861Z,99.90
2022-09-14T05:24:55.702Z,99.90
2022-09-14T05:27:22.689Z,99.90
2022-09-14T05:35:05.925Z,99.90
2022-09-14T05:37:32.796Z,99.90
2022-09-14T05:39:59.511Z,99.90
2022-09-14T05:42:26.450Z,99.90
2022-09-14T05:44:53.187Z,99.90
2022-09-14T05:47:19.998Z,99.90
2022-09-14T05:49:47.087Z,99.90
2022-09-14T05:57:19.302Z,99.90
2022-09-14T05:59:46.213Z,99.90
2022-09-14T06:02:17.452Z,99.90
2022-09-14T06:04:45.620Z,99.90
2022-09-14T06:07:18.681Z,99.90
2022-09-14T06:09:46.009Z,99.90
2022-09-14T06:12:14.303Z,99.90
2022-09-14T06:19:47.205Z,99.90
2022-09-14T06:22:14.232Z,99.90
2022-09-14T06:24:40.957Z,99.90
2022-09-14T06:27:08.991Z,99.90
2022-09-14T06:29:36.221Z,99.90
2022-09-14T06:32:03.142Z,99.90
2022-09-14T06:34:29.973Z,99.90
2022-09-14T06:41:57.825Z,99.90
2022-09-14T06:44:28.347Z,99.90
2022-09-14T06:46:55.380Z,99.90
2022-09-14T06:49:22.931Z,99.90
2022-09-14T06:51:50.254Z,99.90
2022-09-14T06:54:18.307Z,99.90
2022-09-14T06:56:45.977Z,99.90
2022-09-14T07:02:13.180Z,99.90
2022-09-14T07:04:40.146Z,99.90
2022-09-14T07:07:07.300Z,99.90
2022-09-14T07:09:34.100Z,99.90
2022-09-14T07:12:01.060Z,99.90
2022-09-14T07:14:32.029Z,99.90
2022-09-14T07:16:59.314Z,99.90
2022-09-14T07:24:34.128Z,99.90
2022-09-14T07:27:02.768Z,99.90
2022-09-14T07:29:29.876Z,99.90
2022-09-14T07:31:56.800Z,99.90
2022-09-14T07:34:25.014Z,99.90
2022-09-14T07:36:52.300Z,99.90
2022-09-14T07:39:19.831Z,99.90
2022-09-14T07:46:40.726Z,99.90
2022-09-14T07:49:08.991Z,99.90
2022-09-14T07:51:36.262Z,99.90
2022-09-14T07:54:04.796Z,99.90
2022-09-14T07:56:32.292Z,99.10
2022-09-14T07:59:17.669Z,97.20
2022-09-14T08:01:48.786Z,97.20
2022-09-14T08:08:43.899Z,86.20
2022-09-14T08:11:22.786Z,82.60
2022-09-14T08:13:55.685Z,87.10
2022-09-14T08:16:28.102Z,87.80
2022-09-14T08:18:59.503Z,79.40
2022-09-14T08:21:29.146Z,79.80
2022-09-14T08:23:57.845Z,82.40
2022-09-14T08:29:00.207Z,74.10
2022-09-14T08:31:27.998Z,71.20
2022-09-14T08:33:59.557Z,66.90
2022-09-14T08:36:31.594Z,67.60
2022-09-14T08:38:59.966Z,67.20
2022-09-14T08:41:38.313Z,67.10
2022-09-14T08:44:11.530Z,64.00
2022-09-14T08:49:47.132Z,61.20
2022-09-14T08:52:22.826Z,58.90
2022-09-14T08:54:53.637Z,57.90
2022-09-14T08:57:39.164Z,58.40
2022-09-14T09:00:10.492Z,57.80
2022-09-14T09:02:40.212Z,57.90
2022-09-14T09:05:23.360Z,58.30
2022-09-14T09:11:19.252Z,59.70
2022-09-14T09:13:49.727Z,59.30
2022-09-14T09:16:20.569Z,60.10
2022-09-14T09:18:56.648Z,59.80
2022-09-14T09:21:30.045Z,59.60
2022-09-14T09:24:21.912Z,59.60
2022-09-14T09:30:41.438Z,60.00
2022-09-14T09:33:38.028Z,59.60
2022-09-14T09:36:16.036Z,59.90
2022-09-14T09:38:44.813Z,58.70
2022-09-14T09:41:30.904Z,59.00
2022-09-14T09:44:11.725Z,59.80
2022-09-14T09:52:15.187Z,59.60
2022-09-14T09:54:49.905Z,59.30
2022-09-14T09:57:33.309Z,59.80
2022-09-14T10:00:19.595Z,60.70
2022-09-14T10:02:47.313Z,61.20
2022-09-14T10:05:19.476Z,59.50
2022-09-14T10:13:40.692Z,62.00
2022-09-14T10:16:19.475Z,60.30
2022-09-14T10:18:51.611Z,61.00
2022-09-14T10:21:23.844Z,61.50
2022-09-14T10:24:27.074Z,62.80
2022-09-14T10:26:54.257Z,63.00
2022-09-14T10:34:36.625Z,63.30
2022-09-14T10:37:53.334Z,63.30
2022-09-14T10:40:29.993Z,64.20
2022-09-14T10:43:08.771Z,64.90
2022-09-14T10:45:41.267Z,65.40
2022-09-14T10:48:16.888Z,66.60
2022-09-14T10:55:31.332Z,66.40
2022-09-14T10:58:28.262Z,66.30
2022-09-14T11:01:36.460Z,66.30
2022-09-14T11:04:18.473Z,63.00
2022-09-14T11:07:04.509Z,62.80
2022-09-14T11:09:37.714Z,62.40
2022-09-14T11:16:29.130Z,62.80
2022-09-14T11:19:11.174Z,60.10
2022-09-14T11:21:56.279Z,60.50
2022-09-14T11:24:56.801Z,60.90
2022-09-14T11:27:41.925Z,61.00
2022-09-14T11:30:18.086Z,60.50
2022-09-14T11:38:00.525Z,61.80
2022-09-14T11:40:55.233Z,60.90
2022-09-14T11:43:41.631Z,61.60
2022-09-14T11:46:15.455Z,60.60
2022-09-14T11:49:03.945Z,58.80
2022-09-14T11:51:46.422Z,58.50
2022-09-14T11:54:17.421Z,58.40
2022-09-14T11:59:40.739Z,57.60
2022-09-14T12:02:23.505Z,57.20
2022-09-14T12:05:06.717Z,55.80
2022-09-14T12:07:45.489Z,55.20
2022-09-14T12:10:14.546Z,56.40
2022-09-14T12:13:09.485Z,55.80
2022-09-14T12:19:17.291Z,55.00
2022-09-14T12:21:44.358Z,56.30
2022-09-14T12:24:15.260Z,56.40
2022-09-14T12:26:42.359Z,56.40
2022-09-14T12:29:33.140Z,57.10
2022-09-14T12:32:03.269Z,56.10
2022-09-14T12:38:29.243Z,58.00
2022-09-14T12:41:09.332Z,58.00
2022-09-14T12:43:36.948Z,58.80
2022-09-14T12:46:20.374Z,58.30
2022-09-14T12:48:47.556Z,58.40
2022-09-14T12:51:29.779Z,58.30
2022-09-14T13:00:17.168Z,58.00
2022-09-14T13:03:09.291Z,58.30
2022-09-14T13:05:36.666Z,57.50
2022-09-14T13:08:10.773Z,57.80
2022-09-14T13:10:45.491Z,57.50
2022-09-14T13:13:20.887Z,57.60
2022-09-14T13:19:40.424Z,58.40
2022-09-14T13:22:22.258Z,58.30
2022-09-14T13:24:50.205Z,58.70
2022-09-14T13:27:25.290Z,59.10
2022-09-14T13:30:11.637Z,59.40
2022-09-14T13:32:43.830Z,58.90
2022-09-14T13:40:08.436Z,56.80
2022-09-14T13:42:36.213Z,58.30
2022-09-14T13:45:05.126Z,57.70
2022-09-14T13:47:32.146Z,58.50
2022-09-14T13:50:00.160Z,57.40
2022-09-14T13:52:59.836Z,57.60
2022-09-14T14:00:57.063Z,58.30
2022-09-14T14:03:48.932Z,58.90
2022-09-14T14:06:22.124Z,59.40
2022-09-14T14:09:01.711Z,59.70
2022-09-14T14:11:42.892Z,60.00
2022-09-14T14:14:18.573Z,63.00
2022-09-14T14:21:35.606Z,70.00
2022-09-14T14:24:27.882Z,68.10
2022-09-14T14:26:56.652Z,68.70
2022-09-14T14:29:25.100Z,69.10
2022-09-14T14:31:55.551Z,70.20
2022-09-14T14:34:26.570Z,71.00
2022-09-14T14:42:15.603Z,73.20
2022-09-14T14:44:43.879Z,73.50
2022-09-14T14:47:13.734Z,74.00
2022-09-14T14:49:40.916Z,74.80
2022-09-14T14:52:08.682Z,75.70
2022-09-14T14:54:35.476Z,75.70
2022-09-14T14:57:02.167Z,76.20
2022-09-14T15:02:11.563Z,79.10
2022-09-14T15:04:38.557Z,80.90
2022-09-14T15:07:05.836Z,80.70
2022-09-14T15:09:33.032Z,79.60
2022-09-14T15:12:00.100Z,80.30
2022-09-14T15:14:27.447Z,80.60
2022-09-14T15:16:59.110Z,80.30
2022-09-14T15:24:30.667Z,85.40
2022-09-14T15:26:59.172Z,83.00
2022-09-14T15:29:26.009Z,84.20
2022-09-14T15:31:53.744Z,84.60
2022-09-14T15:34:21.184Z,86.10
2022-09-14T15:36:51.060Z,85.60
2022-09-14T15:39:24.246Z,85.90
2022-09-14T15:46:55.775Z,87.70
2022-09-14T15:49:24.152Z,86.40
2022-09-14T15:51:53.246Z,87.60
2022-09-14T15:54:25.455Z,86.70
2022-09-14T15:56:55.276Z,90.30
2022-09-14T15:59:22.285Z,90.90
2022-09-14T16:01:49.195Z,91.40
2022-09-14T16:08:52.937Z,93.70
2022-09-14T16:11:20.298Z,95.50
2022-09-14T16:13:49.419Z,95.50
2022-09-14T16:16:18.380Z,97.70
2022-09-14T16:18:45.457Z,96.80
2022-09-14T16:21:13.800Z,95.80
2022-09-14T16:23:43.189Z,95.30
2022-09-14T16:31:22.668Z,97.40
2022-09-14T16:33:52.143Z,98.30
2022-09-14T16:36:22.271Z,98.90
2022-09-14T16:38:49.442Z,99.40
2022-09-14T16:41:17.409Z,99.90
2022-09-14T16:43:44.650Z,99.90
2022-09-14T16:46:14.647Z,99.90
2022-09-14T16:51:33.082Z,99.90
2022-09-14T16:54:00.516Z,99.90
2022-09-14T16:56:30.739Z,99.90
2022-09-14T16:58:58.527Z,99.90
2022-09-14T17:01:31.608Z,99.90
2022-09-14T17:04:01.522Z,99.90
2022-09-14T17:06:29.145Z,99.90
2022-09-14T17:14:19.187Z,99.90
2022-09-14T17:16:46.179Z,99.90
2022-09-14T17:19:14.637Z,99.90
2022-09-14T17:21:43.366Z,99.90
2022-09-14T17:24:11.050Z,99.90
2022-09-14T17:26:38.480Z,99.90
2022-09-14T17:29:06.442Z,99.90
2022-09-14T17:37:06.223Z,99.90
2022-09-14T17:39:33.228Z,99.90
2022-09-14T17:42:00.240Z,99.90
2022-09-14T17:44:30.706Z,99.90
2022-09-14T17:46:57.559Z,99.90
2022-09-14T17:49:24.537Z,99.90
2022-09-14T17:51:52.044Z,99.90
2022-09-14T17:59:24.577Z,99.90
2022-09-14T18:01:51.601Z,99.90
2022-09-14T18:06:47.686Z,99.90
2022-09-14T18:09:17.761Z,99.90
2022-09-14T18:11:45.163Z,99.90
2022-09-14T18:14:13.471Z,99.90
2022-09-14T18:21:06.889Z,99.90
2022-09-14T18:23:34.364Z,99.90
2022-09-14T18:26:03.390Z,99.90
2022-09-14T18:28:30.594Z,99.90
2022-09-14T18:31:06.795Z,99.90
2022-09-14T18:33:34.619Z,99.90
2022-09-14T18:43:03.701Z,99.90
2022-09-14T18:45:30.927Z,99.90
2022-09-14T18:47:57.991Z,99.90
2022-09-14T18:50:24.894Z,99.90
2022-09-14T18:52:51.840Z,99.90
2022-09-14T18:55:18.951Z,99.90
2022-09-14T18:57:48.246Z,99.90
2022-09-14T19:00:18.797Z,99.90
2022-09-14T19:05:39.715Z,99.90
2022-09-14T19:08:07.677Z,99.90
2022-09-14T19:10:38.206Z,99.90
2022-09-14T19:13:06.499Z,99.90
2022-09-14T19:15:33.462Z,99.90
2022-09-14T19:18:00.774Z,99.90
2022-09-14T19:28:02.662Z,99.90
2022-09-14T19:30:29.523Z,99.90
2022-09-14T19:32:56.081Z,99.90
2022-09-14T19:35:23.188Z,99.90
2022-09-14T19:37:50.041Z,99.90
2022-09-14T19:40:16.994Z,99.90
2022-09-14T19:42:43.824Z,99.90
2022-09-14T19:50:18.679Z,99.90
2022-09-14T19:52:45.474Z,99.90
2022-09-14T19:55:12.325Z,99.90
2022-09-14T19:57:39.055Z,99.90
2022-09-14T20:00:10.296Z,99.90
2022-09-14T20:02:37.022Z,99.90
2022-09-14T20:05:04.408Z,99.90
2022-09-14T20:12:35.897Z,99.90
2022-09-14T20:15:03.112Z,99.90
2022-09-14T20:17:30.189Z,99.90
2022-09-14T20:19:57.274Z,99.90
2022-09-14T20:22:24.017Z,99.90
2022-09-14T20:24:51.303Z,99.90
2022-09-14T20:27:18.264Z,99.90
2022-09-14T20:34:48.936Z,99.90
2022-09-14T20:37:15.976Z,99.90
2022-09-14T20:39:42.915Z,99.90
2022-09-14T20:42:09.693Z,99.90
2022-09-14T20:44:36.819Z,99.90
2022-09-14T20:47:03.688Z,99.90
2022-09-14T20:49:30.414Z,99.90
2022-09-14T20:57:05.862Z,99.90
2022-09-14T20:59:33.037Z,99.90
2022-09-14T21:02:04.641Z,99.90
2022-09-14T21:04:34.100Z,99.90
2022-09-14T21:07:01.026Z,99.90
2022-09-14T21:09:28.589Z,99.90
2022-09-14T21:11:55.607Z,99.90
2022-09-14T21:19:33.571Z,99.90
2022-09-14T21:22:00.655Z,99.90
2022-09-14T21:24:27.657Z,99.90
2022-09-14T21:26:55.908Z,99.90
2022-09-14T21:29:24.174Z,99.90
2022-09-14T21:31:51.747Z,99.90
2022-09-14T21:34:18.630Z,99.90
2022-09-14T21:41:32.385Z,99.90
2022-09-14T21:43:59.470Z,99.90
2022-09-14T21:46:26.559Z,99.90
2022-09-14T21:48:55.264Z,99.90
2022-09-14T21:51:23.747Z,99.90
2022-09-14T21:53:56.663Z,99.90
2022-09-14T21:56:26.670Z,99.90
2022-09-14T22:04:29.178Z,99.90
2022-09-14T22:06:56.840Z,99.90
2022-09-14T22:09:30.375Z,99.90
2022-09-14T22:11:57.506Z,99.90
2022-09-14T22:14:28.908Z,99.90
2022-09-14T22:16:58.518Z,99.90
2022-09-14T22:19:30.310Z,99.90
2022-09-14T22:26:58.571Z,99.90
2022-09-14T22:29:25.300Z,99.90
2022-09-14T22:31:52.200Z,99.90
2022-09-14T22:34:20.853Z,99.90
2022-09-14T22:36:48.033Z,99.90
2022-09-14T22:39:14.805Z,99.90
2022-09-14T22:41:41.911Z,99.90
2022-09-14T22:51:17.540Z,99.90
2022-09-14T22:53:45.721Z,99.90
2022-09-14T22:56:28.435Z,99.90
2022-09-14T22:58:56.156Z,99.90
2022-09-14T23:01:26.006Z,99.90
2022-09-14T23:04:01.969Z,99.90
2022-09-14T23:06:40.596Z,99.90
2022-09-14T23:14:16.158Z,99.90
2022-09-14T23:16:44.559Z,99.90
2022-09-14T23:19:15.305Z,99.90
2022-09-14T23:21:42.504Z,99.90
2022-09-14T23:24:10.378Z,99.90
2022-09-14T23:26:38.013Z,99.90
2022-09-14T23:29:08.209Z,99.90
2022-09-14T23:36:42.420Z,99.90
2022-09-14T23:39:09.358Z,99.90
2022-09-14T23:41:36.570Z,99.90
2022-09-14T23:44:03.571Z,99.90
2022-09-14T23:46:30.803Z,99.90
2022-09-14T23:48:57.820Z,99.90
2022-09-14T23:51:24.789Z,99.90
2022-09-14T23:56:33.768Z,99.90
2022-09-14T23:59:01.183Z,99.90
